AirNav   Jet Aviation Boston
 
 1076 users online  

5H3 Clear Lake Municipal Airport
Clear Lake, South Dakota, USA

GOING TO CLEAR LAKE?


FAA INFORMATION EFFECTIVE 29 MARCH 2018

Location

FAA Identifier: 5H3
Lat/Long: 44-46-16.8720N / 096-41-17.2110W
44-46.281200N / 096-41.286850W
44.7713533 / -96.6881142
(estimated)
Elevation: 1801 ft. / 548.9 m (surveyed)
Variation: 06E (1985)
From city: 1 mile N of CLEAR LAKE, SD
Time zone: UTC -5 (UTC -6 during Standard Time)
Zip code: 57226

Airport Operations

Airport use: Open to the public
Activation date: 09/1964
Control tower: no
ARTCC: MINNEAPOLIS CENTER
FSS: HURON FLIGHT SERVICE STATION
NOTAMs facility: HON (NOTAM-D service available)
Attendance: UNATNDD
Wind indicator: lighted
Segmented circle: no
Lights: ACTVT LIRL RY 13/31 - CTAF.
Beacon: white-green (lighted land airport)
Operates sunset to sunrise.

Airport Communications

CTAF: 122.9
WX AWOS-3 at CNB (18 nm E): 118.575 (507-223-5293)

Nearby radio navigation aids

VOR radial/distance  VOR name  Freq  Var
ATYr114/23.0WATERTOWN VORTAC116.6009E

 
NDB name  Hdg/Dist  Freq  Var  ID
DAWSON/MADISON236/25.134103EDXX -.. -..- -..-
ORTONVILLE195/33.833205EVVV ...- ...- ...-
APPLETON221/39.835605EAQP .- --.- .--.

Airport Services

Parking: tiedowns
Airframe service: NONE
Powerplant service: NONE
Bottled oxygen: NONE
Bulk oxygen: NONE

Runway Information

Runway 13/31

Dimensions: 3000 x 150 ft. / 914 x 46 m
Surface: turf, in good condition
Runway edge lights: low intensity
Runway edge markings: RY 13 /31 MKD WITH WHITE AND BLACK CONE MARKERS.
RUNWAY 13  RUNWAY 31
Latitude: 44-46.495167N44-46.122833N
Longitude: 096-39.008667W096-38.553500W
Elevation: 1798.0 ft.1792.0 ft.
Gradient: 0.2%0.2%
Traffic pattern: leftleft
Markings: NSTDNSTD
Runway end identifier lights: nono
Obstructions: 17 ft. road, 340 ft. from runway, 20:1 slope to clear21 ft. pline, 420 ft. from runway, 20:1 slope to clear

Runway 2/20

Dimensions: 2130 x 150 ft. / 649 x 46 m
Surface: turf, in fair condition
RUNWAY 2  RUNWAY 20
Latitude: 44-46.157333N44-46.485500N
Longitude: 096-38.964000W096-38.791167W
Elevation: 1790.0 ft.1793.0 ft.
Traffic pattern: leftleft
Obstructions: none17 ft. road, 375 ft. from runway, 22:1 slope to clear

Airport Ownership and Management from official FAA records

Ownership: Publicly-owned
Owner: CITY OF CLEAR LAKE
PO BOX 107
CLEAR LAKE, SD 57226
Phone 605-874-2121
Manager: KAREN HARFORD
PO BOX 107
CLEAR LAKE, SD 57226
Phone 605-874-2121

Airport Operational Statistics

Aircraft based on the field: 3
Single engine airplanes: 3
    
Aircraft operations: avg 46/month *
91% local general aviation
9% transient general aviation
* for 12-month period ending 07 September 2017

Additional Remarks

RY 31 +4' FENCE 255' FM THR;
RY 02 +4' FENCE 145' FM THR.
ARPT CLSD WINTER MONTHS DUE TO SNOW CONDITIONS, CALL 605-874-2121 FOR CONDITIONS .
WILDLIFE ON & INVOF ARPT.

Instrument Procedures

There are no published instrument procedures at 5H3.

Some nearby airports with instrument procedures:

KCNB - Myers Field Airport (18 nm E)
KATY - Watertown Regional Airport (22 nm NW)
KDXX - Lac Qui Parle County Airport (25 nm NE)
1D1 - Milbank Municipal Airport (28 nm N)
KBKX - Brookings Regional Airport (29 nm S)
 
Loc | Ops | Rwys | IFR | FBO | Links
Com | Nav | Svcs | Stats | Notes

Mandan Aero Center
 
Area around 5H3 (Clear Lake Municipal Airport)
 
Road maps at: MapQuest Bing Google
 
Aerial photo
WARNING: Photo may not be current or correct
Aerial photo of 5H3 (Clear Lake Municipal Airport)
Photo by Steve Hamilton
Photo taken 28-Oct-2008

Do you have a better or more recent aerial photo of Clear Lake Municipal Airport that you would like to share? If so, please send us your photo.

 
Sectional chart

 
Airport distance calculator
Flying to Clear Lake Municipal Airport? Find the distance to fly.

From to 5H3

Sunrise and sunset
Times for 22-Apr-2018
 Local
(UTC-5)
 Zulu
(UTC)
Morning civil twilight06:0011:00
Sunrise06:3211:32
Sunset20:1901:19
Evening civil twilight20:5001:50

Current date and time
Zulu (UTC)  22-Apr-2018 16:15:33
Local (UTC-5)  22-Apr-2018 11:15:33
 
METAR
KCNB 
18nm E 
221555Z AUTO 10005KT 10SM CLR 09/04 A3033 RMK AO2 T00900039
KATY 
21nm W 
221553Z AUTO 16009KT 10SM CLR 11/03 A3027 RMK AO2 SLP260 T01060033
KDXX 
26nm NE 
221555Z AUTO 15007KT 10SM CLR 11/06 A3031 RMK AO2
1D1 
28nm N 
SuperAWOS
220355Z AUTO A3028
KBKX 
30nm S 
221556Z AUTO 20005KT 10SM CLR 11/01 A3030 RMK AO2 SLP285 T01110011
KVVV 
34nm N 
221555Z AUTO 17005KT 10SM CLR 11/03 A3029 RMK AO2
TAF
KATY 
21nm W 
221120Z 2212/2312 16004KT P6SM BKN070 FM221500 18008KT P6SM FEW250 FM221800 18010G17KT P6SM FEW250 FM230100 16006KT P6SM FEW250
NOTAMs
Click for the latest NOTAMs
NOTAMs are issued by the DoD/FAA and will open in a separate window not controlled by AirNav.

 

 
 

Would you like to see your business listed on this page?

 If your business provides an interesting product or service to pilots, flight crews, aircraft, or users of the Clear Lake Municipal Airport, you should consider listing it here.  To start the listing process, click on the button below
 
Add a business
 

Other Pages about Clear Lake Municipal Airport

Update a link
 
Copyright © AirNav, LLC. All rights reserved. Privacy Policy  Contact